createdAt,value
2022-08-24T00:01:47.850Z,97779.00
2022-08-24T00:04:16.243Z,97768.00
2022-08-24T00:06:44.665Z,97776.00
2022-08-24T00:09:11.720Z,97770.00
2022-08-24T00:11:41.024Z,97773.00
2022-08-24T00:14:08.326Z,97772.00
2022-08-24T00:16:36.118Z,97776.00
2022-08-24T00:19:03.880Z,97788.00
2022-08-24T00:21:30.877Z,97776.00
2022-08-24T00:23:57.925Z,97775.00
2022-08-24T00:26:29.417Z,97766.00
2022-08-24T00:28:58.185Z,97768.00
2022-08-24T00:31:26.987Z,97765.00
2022-08-24T00:33:54.941Z,97769.00
2022-08-24T00:36:22.788Z,97772.00
2022-08-24T00:38:50.273Z,97776.00
2022-08-24T00:41:18.259Z,97773.00
2022-08-24T00:44:02.817Z,97771.00
2022-08-24T00:47:00.247Z,97776.00
2022-08-24T00:49:42.044Z,97786.00
2022-08-24T00:52:19.488Z,97773.00
2022-08-24T00:54:54.256Z,97772.00
2022-08-24T00:57:28.713Z,97777.00
2022-08-24T01:00:17.537Z,97781.00
2022-08-24T01:02:51.180Z,97779.00
2022-08-24T01:05:19.351Z,97773.00
2022-08-24T01:07:50.530Z,97782.00
2022-08-24T01:10:25.115Z,97766.00
2022-08-24T01:13:00.427Z,97777.00
2022-08-24T01:15:33.115Z,97783.00
2022-08-24T01:18:20.979Z,97778.00
2022-08-24T01:21:06.156Z,97776.00
2022-08-24T01:24:00.704Z,97777.00
2022-08-24T01:26:35.271Z,97786.00
2022-08-24T01:29:23.582Z,97769.00
2022-08-24T01:31:51.379Z,97778.00
2022-08-24T01:34:18.490Z,97766.00
2022-08-24T01:36:50.594Z,97775.00
2022-08-24T01:39:30.049Z,97775.00
2022-08-24T01:41:59.197Z,97781.00
2022-08-24T01:44:30.398Z,97772.00
2022-08-24T01:46:57.853Z,97782.00
2022-08-24T01:49:30.939Z,97780.00
2022-08-24T01:52:00.204Z,97773.00
2022-08-24T01:54:28.170Z,97775.00
2022-08-24T01:56:55.210Z,97769.00
2022-08-24T01:59:22.265Z,97778.00
2022-08-24T02:01:56.562Z,97780.00
2022-08-24T02:04:24.173Z,97780.00
2022-08-24T02:06:51.199Z,97782.00
2022-08-24T02:09:18.187Z,97785.00
2022-08-24T02:11:45.767Z,97787.00
2022-08-24T02:14:14.491Z,97783.00
2022-08-24T02:16:42.723Z,97782.00
2022-08-24T02:19:09.950Z,97787.00
2022-08-24T02:21:38.455Z,97779.00
2022-08-24T02:24:07.765Z,97795.00
2022-08-24T02:26:34.997Z,97789.00
2022-08-24T02:29:03.832Z,97797.00
2022-08-24T02:31:32.883Z,97802.00
2022-08-24T02:34:00.338Z,97785.00
2022-08-24T02:36:27.274Z,97805.00
2022-08-24T02:38:58.110Z,97794.00
2022-08-24T02:41:25.889Z,97800.00
2022-08-24T02:43:56.604Z,97787.00
2022-08-24T02:46:27.690Z,97788.00
2022-08-24T02:49:10.105Z,97782.00
2022-08-24T02:51:46.022Z,97777.00
2022-08-24T02:54:18.603Z,97788.00
2022-08-24T02:56:48.475Z,97802.00
2022-08-24T02:59:16.832Z,97797.00
2022-08-24T03:01:45.280Z,97800.00
2022-08-24T03:04:14.512Z,97800.00
2022-08-24T03:06:42.518Z,97791.00
2022-08-24T03:09:09.671Z,97801.00
2022-08-24T03:11:37.341Z,97788.00
2022-08-24T03:14:05.602Z,97819.00
2022-08-24T03:16:33.543Z,97802.00
2022-08-24T03:19:02.097Z,97793.00
2022-08-24T03:21:33.599Z,97797.00
2022-08-24T03:24:00.979Z,97803.00
2022-08-24T03:26:28.147Z,97790.00
2022-08-24T03:28:55.303Z,97800.00
2022-08-24T03:31:22.361Z,97789.00
2022-08-24T03:33:50.904Z,97792.00
2022-08-24T03:36:18.574Z,97793.00
2022-08-24T03:38:45.459Z,97798.00
2022-08-24T03:41:12.677Z,97782.00
2022-08-24T03:43:48.718Z,97797.00
2022-08-24T03:46:29.069Z,97791.00
2022-08-24T03:48:58.787Z,97795.00
2022-08-24T03:51:28.453Z,97796.00
2022-08-24T03:53:58.537Z,97797.00
2022-08-24T03:56:28.700Z,97793.00
2022-08-24T03:58:57.319Z,97799.00
2022-08-24T04:01:27.054Z,97801.00
2022-08-24T04:03:55.258Z,97797.00
2022-08-24T04:06:27.014Z,97797.00
2022-08-24T04:08:54.437Z,97790.00
2022-08-24T04:11:26.292Z,97791.00
2022-08-24T04:13:57.411Z,97811.00
2022-08-24T04:16:26.373Z,97802.00
2022-08-24T04:19:02.914Z,97808.00
2022-08-24T04:21:35.486Z,97792.00
2022-08-24T04:24:08.668Z,97784.00
2022-08-24T04:26:44.976Z,97806.00
2022-08-24T04:29:17.440Z,97799.00
2022-08-24T04:31:53.390Z,97802.00
2022-08-24T04:34:21.588Z,97803.00
2022-08-24T04:36:48.824Z,97804.00
2022-08-24T04:39:15.901Z,97799.00
2022-08-24T04:42:03.250Z,97818.00
2022-08-24T04:44:36.192Z,97810.00
2022-08-24T04:47:04.379Z,97802.00
2022-08-24T04:49:31.526Z,97817.00
2022-08-24T04:51:58.842Z,97811.00
2022-08-24T04:54:27.290Z,97812.00
2022-08-24T04:57:17.934Z,97825.00
2022-08-24T04:59:47.191Z,97823.00
2022-08-24T05:02:14.435Z,97817.00
2022-08-24T05:04:41.661Z,97823.00
2022-08-24T05:07:08.813Z,97822.00
2022-08-24T05:09:35.847Z,97821.00
2022-08-24T05:12:03.200Z,97822.00
2022-08-24T05:14:35.229Z,97825.00
2022-08-24T05:17:02.943Z,97825.00
2022-08-24T05:19:31.026Z,97832.00
2022-08-24T05:21:58.142Z,97831.00
2022-08-24T05:24:25.634Z,97827.00
2022-08-24T05:26:53.120Z,97813.00
2022-08-24T05:29:21.609Z,97829.00
2022-08-24T05:31:50.306Z,97834.00
2022-08-24T05:34:17.940Z,97832.00
2022-08-24T05:36:45.586Z,97824.00
2022-08-24T05:39:25.381Z,97827.00
2022-08-24T05:41:55.503Z,97828.00
2022-08-24T05:44:30.758Z,97828.00
2022-08-24T05:47:02.276Z,97829.00
2022-08-24T05:49:30.994Z,97820.00
2022-08-24T05:51:58.836Z,97845.00
2022-08-24T05:54:26.980Z,97837.00
2022-08-24T05:57:04.937Z,97844.00
2022-08-24T05:59:48.238Z,97839.00
2022-08-24T06:02:19.478Z,97844.00
2022-08-24T06:04:46.989Z,97838.00
2022-08-24T06:07:14.513Z,97835.00
2022-08-24T06:09:46.028Z,97844.00
2022-08-24T06:12:13.349Z,97845.00
2022-08-24T06:14:47.751Z,97840.00
2022-08-24T06:17:17.513Z,97844.00
2022-08-24T06:19:44.783Z,97841.00
2022-08-24T06:22:11.879Z,97838.00
2022-08-24T06:24:59.062Z,97847.00
2022-08-24T06:27:28.268Z,97844.00
2022-08-24T06:30:09.484Z,97845.00
2022-08-24T06:32:58.952Z,97839.00
2022-08-24T06:35:36.630Z,97850.00
2022-08-24T06:38:04.402Z,97845.00
2022-08-24T06:40:32.354Z,97844.00
2022-08-24T06:43:04.301Z,97837.00
2022-08-24T06:46:00.935Z,97857.00
2022-08-24T06:48:31.952Z,97854.00
2022-08-24T06:51:00.590Z,97844.00
2022-08-24T06:53:28.896Z,97854.00
2022-08-24T06:55:59.073Z,97861.00
2022-08-24T06:58:35.039Z,97846.00
2022-08-24T07:01:18.913Z,97844.00
2022-08-24T07:03:47.237Z,97843.00
2022-08-24T07:06:37.172Z,97847.00
2022-08-24T07:09:05.398Z,97844.00
2022-08-24T07:11:34.953Z,97838.00
2022-08-24T07:14:02.320Z,97859.00
2022-08-24T07:16:29.275Z,97847.00
2022-08-24T07:19:03.179Z,97854.00
2022-08-24T07:21:31.663Z,97844.00
2022-08-24T07:24:02.234Z,97850.00
2022-08-24T07:26:33.375Z,97861.00
2022-08-24T07:29:43.670Z,97863.00
2022-08-24T07:32:03.097Z,97860.00
2022-08-24T07:34:37.156Z,97857.00
2022-08-24T07:37:05.535Z,97855.00
2022-08-24T07:39:32.531Z,97864.00
2022-08-24T07:42:13.083Z,97859.00
2022-08-24T07:44:42.300Z,97863.00
2022-08-24T07:47:36.623Z,97855.00
2022-08-24T07:49:57.234Z,97858.00
2022-08-24T07:52:24.413Z,97857.00
2022-08-24T07:54:52.023Z,97856.00
2022-08-24T07:57:19.527Z,97871.00
2022-08-24T07:59:47.593Z,97864.00
2022-08-24T08:02:14.878Z,97858.00
2022-08-24T08:04:47.207Z,97863.00
2022-08-24T08:07:14.697Z,97884.00
2022-08-24T08:09:41.724Z,97870.00
2022-08-24T08:12:10.710Z,97879.00
2022-08-24T08:14:45.775Z,97882.00
2022-08-24T08:17:15.020Z,97891.00
2022-08-24T08:19:43.084Z,97886.00
2022-08-24T08:22:29.313Z,97889.00
2022-08-24T08:25:19.226Z,97888.00
2022-08-24T08:27:47.106Z,97877.00
2022-08-24T08:30:15.528Z,97880.00
2022-08-24T08:32:43.023Z,97881.00
2022-08-24T08:35:10.804Z,97884.00
2022-08-24T08:37:38.075Z,97886.00
2022-08-24T08:40:12.974Z,97879.00
2022-08-24T08:43:04.947Z,97864.00
2022-08-24T08:46:07.945Z,97881.00
2022-08-24T08:49:40.271Z,97886.00
2022-08-24T08:52:38.373Z,97886.00
2022-08-24T08:55:34.872Z,97885.00
2022-08-24T08:59:06.064Z,97890.00
2022-08-24T09:02:26.119Z,97882.00
2022-08-24T09:05:24.875Z,97877.00
2022-08-24T09:08:26.770Z,97884.00
2022-08-24T09:12:05.950Z,97885.00
2022-08-24T09:15:01.500Z,97883.00
2022-08-24T09:17:52.487Z,97880.00
2022-08-24T09:20:46.398Z,97881.00
2022-08-24T09:23:30.720Z,97877.00
2022-08-24T09:26:27.660Z,97879.00
2022-08-24T09:29:17.192Z,97885.00
2022-08-24T09:32:42.737Z,97880.00
2022-08-24T09:35:26.657Z,97870.00
2022-08-24T09:38:24.251Z,97874.00
2022-08-24T09:41:45.182Z,97872.00
2022-08-24T09:44:55.440Z,97876.00
2022-08-24T09:47:44.900Z,97870.00
2022-08-24T09:50:38.812Z,97866.00
2022-08-24T09:53:43.533Z,97872.00
2022-08-24T09:57:13.008Z,97874.00
2022-08-24T10:00:09.919Z,97866.00
2022-08-24T10:03:08.294Z,97858.00
2022-08-24T10:06:15.837Z,97862.00
2022-08-24T10:09:24.242Z,97860.00
2022-08-24T10:12:21.911Z,97847.00
2022-08-24T10:14:51.828Z,97862.00
2022-08-24T10:17:47.139Z,97846.00
2022-08-24T10:20:48.670Z,97859.00
2022-08-24T10:23:45.692Z,97854.00
2022-08-24T10:26:28.642Z,97841.00
2022-08-24T10:29:28.943Z,97842.00
2022-08-24T10:32:14.827Z,97846.00
2022-08-24T10:35:03.337Z,97838.00
2022-08-24T10:38:35.193Z,97833.00
2022-08-24T10:41:59.342Z,97834.00
2022-08-24T10:45:02.080Z,97831.00
2022-08-24T10:47:35.609Z,97818.00
2022-08-24T10:50:54.590Z,97835.00
2022-08-24T10:53:35.745Z,97834.00
2022-08-24T10:56:19.532Z,97829.00
2022-08-24T10:58:51.543Z,97822.00
2022-08-24T11:01:33.626Z,97817.00
2022-08-24T11:04:10.617Z,97813.00
2022-08-24T11:07:23.572Z,97822.00
2022-08-24T11:09:54.264Z,97827.00
2022-08-24T11:12:37.357Z,97822.00
2022-08-24T11:15:26.392Z,97816.00
2022-08-24T11:18:00.177Z,97809.00
2022-08-24T11:20:33.451Z,97814.00
2022-08-24T11:23:09.073Z,97821.00
2022-08-24T11:25:54.613Z,97812.00
2022-08-24T11:28:33.561Z,97813.00
2022-08-24T11:31:01.465Z,97819.00
2022-08-24T11:33:49.467Z,97814.00
2022-08-24T11:36:25.812Z,97817.00
2022-08-24T11:39:17.692Z,97820.00
2022-08-24T11:42:37.653Z,97813.00
2022-08-24T11:45:34.515Z,97810.00
2022-08-24T11:48:15.420Z,97818.00
2022-08-24T11:51:08.275Z,97818.00
2022-08-24T11:53:59.895Z,97813.00
2022-08-24T11:56:30.620Z,97806.00
2022-08-24T11:59:30.379Z,97802.00
2022-08-24T12:02:11.049Z,97808.00
2022-08-24T12:05:19.896Z,97814.00
2022-08-24T12:08:31.119Z,97801.00
2022-08-24T12:11:39.068Z,97807.00
2022-08-24T12:14:22.485Z,97802.00
2022-08-24T12:17:20.321Z,97807.00
2022-08-24T12:20:05.330Z,97802.00
2022-08-24T12:22:33.032Z,97801.00
2022-08-24T12:25:25.378Z,97798.00
2022-08-24T12:27:55.355Z,97787.00
2022-08-24T12:30:22.862Z,97792.00
2022-08-24T12:33:00.762Z,97805.00
2022-08-24T12:35:55.544Z,97783.00
2022-08-24T12:38:41.999Z,97798.00
2022-08-24T12:41:24.204Z,97799.00
2022-08-24T12:44:00.427Z,97794.00
2022-08-24T12:46:27.799Z,97799.00
2022-08-24T12:49:22.620Z,97790.00
2022-08-24T12:52:30.621Z,97789.00
2022-08-24T12:55:32.862Z,97802.00
2022-08-24T12:58:34.679Z,97787.00
2022-08-24T13:01:07.585Z,97798.00
2022-08-24T13:03:41.620Z,97784.00
2022-08-24T13:06:26.466Z,97802.00
2022-08-24T13:09:15.060Z,97789.00
2022-08-24T13:11:42.839Z,97780.00
2022-08-24T13:14:21.857Z,97780.00
2022-08-24T13:16:58.057Z,97778.00
2022-08-24T13:19:31.086Z,97786.00
2022-08-24T13:22:25.264Z,97777.00
2022-08-24T13:25:23.341Z,97782.00
2022-08-24T13:28:07.449Z,97779.00
2022-08-24T13:31:15.213Z,97787.00
2022-08-24T13:33:57.131Z,97789.00
2022-08-24T13:36:41.825Z,97775.00
2022-08-24T13:39:36.068Z,97779.00
2022-08-24T13:42:30.782Z,97779.00
2022-08-24T13:45:24.380Z,97776.00
2022-08-24T13:48:19.638Z,97772.00
2022-08-24T13:51:20.491Z,97767.00
2022-08-24T13:54:26.999Z,97758.00
2022-08-24T13:57:27.669Z,97768.00
2022-08-24T14:00:49.322Z,97759.00
2022-08-24T14:03:19.396Z,97771.00
2022-08-24T14:06:27.452Z,97774.00
2022-08-24T14:09:17.590Z,97773.00
2022-08-24T14:12:24.111Z,97759.00
2022-08-24T14:15:28.062Z,97772.00
2022-08-24T14:18:23.158Z,97768.00
2022-08-24T14:21:17.896Z,97766.00
2022-08-24T14:24:07.892Z,97752.00
2022-08-24T14:26:38.194Z,97768.00
2022-08-24T14:29:20.073Z,97761.00
2022-08-24T14:31:53.223Z,97765.00
2022-08-24T14:35:04.832Z,97755.00
2022-08-24T14:38:01.554Z,97762.00
2022-08-24T14:41:06.457Z,97751.00
2022-08-24T14:44:45.003Z,97755.00
2022-08-24T14:47:36.817Z,97752.00
2022-08-24T14:50:12.636Z,97747.00
2022-08-24T14:52:55.936Z,97745.00
2022-08-24T14:55:44.748Z,97739.00
2022-08-24T14:58:29.347Z,97742.00
2022-08-24T15:01:15.200Z,97737.00
2022-08-24T15:04:09.245Z,97746.00
2022-08-24T15:06:55.937Z,97748.00
2022-08-24T15:09:35.496Z,97743.00
2022-08-24T15:12:33.532Z,97741.00
2022-08-24T15:15:21.790Z,97725.00
2022-08-24T15:18:21.660Z,97733.00
2022-08-24T15:21:08.924Z,97733.00
2022-08-24T15:24:19.752Z,97736.00
2022-08-24T15:27:23.984Z,97732.00
2022-08-24T15:29:57.050Z,97720.00
2022-08-24T15:32:44.269Z,97726.00
2022-08-24T15:35:31.195Z,97730.00
2022-08-24T15:38:25.857Z,97734.00
2022-08-24T15:41:12.675Z,97727.00
2022-08-24T15:43:54.009Z,97736.00
2022-08-24T15:46:31.858Z,97728.00
2022-08-24T15:49:08.354Z,97727.00
2022-08-24T15:52:00.356Z,97732.00
2022-08-24T15:54:37.723Z,97722.00
2022-08-24T15:57:29.965Z,97724.00
2022-08-24T16:00:41.494Z,97718.00
2022-08-24T16:03:49.038Z,97723.00
2022-08-24T16:06:34.429Z,97728.00
2022-08-24T16:09:12.885Z,97711.00
2022-08-24T16:11:51.092Z,97722.00
2022-08-24T16:14:46.912Z,97732.00
2022-08-24T16:17:50.968Z,97732.00
2022-08-24T16:20:24.109Z,97729.00
2022-08-24T16:23:24.352Z,97730.00
2022-08-24T16:26:25.036Z,97736.00
2022-08-24T16:28:54.266Z,97726.00
2022-08-24T16:31:51.890Z,97730.00
2022-08-24T16:34:29.976Z,97723.00
2022-08-24T16:36:58.467Z,97726.00
2022-08-24T16:39:25.858Z,97730.00
2022-08-24T16:42:04.795Z,97734.00
2022-08-24T16:44:40.824Z,97729.00
2022-08-24T16:47:09.787Z,97724.00
2022-08-24T16:49:38.848Z,97732.00
2022-08-24T16:52:06.520Z,97729.00
2022-08-24T16:54:33.839Z,97737.00
2022-08-24T16:57:17.538Z,97730.00
2022-08-24T16:59:48.328Z,97734.00
2022-08-24T17:02:17.699Z,97732.00
2022-08-24T17:04:45.700Z,97726.00
2022-08-24T17:07:17.331Z,97720.00
2022-08-24T17:09:47.213Z,97726.00
2022-08-24T17:12:15.047Z,97732.00
2022-08-24T17:14:42.704Z,97713.00
2022-08-24T17:17:15.183Z,97729.00
2022-08-24T17:19:44.470Z,97732.00
2022-08-24T17:22:15.660Z,97730.00
2022-08-24T17:24:44.779Z,97733.00
2022-08-24T17:27:13.667Z,97734.00
2022-08-24T17:29:44.397Z,97723.00
2022-08-24T17:32:12.867Z,97731.00
2022-08-24T17:34:42.931Z,97725.00
2022-08-24T17:37:11.163Z,97735.00
2022-08-24T17:39:38.501Z,97739.00
2022-08-24T17:42:20.963Z,97737.00
2022-08-24T17:44:53.300Z,97750.00
2022-08-24T17:47:20.188Z,97739.00
2022-08-24T17:49:47.131Z,97744.00
2022-08-24T17:52:14.675Z,97740.00
2022-08-24T17:54:41.699Z,97748.00
2022-08-24T17:57:13.073Z,97751.00
2022-08-24T17:59:41.031Z,97755.00
2022-08-24T18:02:15.088Z,97756.00
2022-08-24T18:04:44.121Z,97753.00
2022-08-24T18:07:25.712Z,97756.00
2022-08-24T18:10:07.920Z,97765.00
2022-08-24T18:12:34.985Z,97760.00
2022-08-24T18:15:01.992Z,97772.00
2022-08-24T18:17:43.457Z,97766.00
2022-08-24T18:20:14.901Z,97755.00
2022-08-24T18:22:44.923Z,97771.00
2022-08-24T18:25:14.392Z,97781.00
2022-08-24T18:27:47.173Z,97771.00
2022-08-24T18:30:32.822Z,97782.00
2022-08-24T18:33:01.792Z,97769.00
2022-08-24T18:35:30.657Z,97776.00
2022-08-24T18:37:57.628Z,97786.00
2022-08-24T18:40:27.114Z,97795.00
2022-08-24T18:43:01.890Z,97790.00
2022-08-24T18:45:32.950Z,97781.00
2022-08-24T18:47:59.980Z,97805.00
2022-08-24T18:50:28.953Z,97798.00
2022-08-24T18:52:58.304Z,97798.00
2022-08-24T18:55:26.711Z,97804.00
2022-08-24T18:57:54.023Z,97818.00
2022-08-24T19:00:21.490Z,97806.00
2022-08-24T19:02:48.462Z,97803.00
2022-08-24T19:05:23.854Z,97815.00
2022-08-24T19:07:54.584Z,97822.00
2022-08-24T19:10:30.389Z,97808.00
2022-08-24T19:13:15.135Z,97800.00
2022-08-24T19:15:43.260Z,97804.00
2022-08-24T19:18:13.778Z,97809.00
2022-08-24T19:20:49.236Z,97808.00
2022-08-24T19:23:31.080Z,97821.00
2022-08-24T19:25:59.069Z,97809.00
2022-08-24T19:28:26.995Z,97811.00
2022-08-24T19:30:58.052Z,97817.00
2022-08-24T19:33:31.463Z,97815.00
2022-08-24T19:35:59.520Z,97825.00
2022-08-24T19:38:26.561Z,97820.00
2022-08-24T19:40:57.282Z,97807.00
2022-08-24T19:43:29.738Z,97819.00
2022-08-24T19:46:02.243Z,97812.00
2022-08-24T19:48:32.988Z,97822.00
2022-08-24T19:51:05.725Z,97830.00
2022-08-24T19:53:36.960Z,97815.00
2022-08-24T19:56:06.884Z,97826.00
2022-08-24T19:59:02.130Z,97820.00
2022-08-24T20:01:35.289Z,97830.00
2022-08-24T20:04:07.370Z,97824.00
2022-08-24T20:06:37.016Z,97839.00
2022-08-24T20:09:05.336Z,97829.00
2022-08-24T20:11:32.862Z,97841.00
2022-08-24T20:14:00.372Z,97827.00
2022-08-24T20:16:34.180Z,97846.00
2022-08-24T20:19:02.057Z,97836.00
2022-08-24T20:21:30.234Z,97843.00
2022-08-24T20:24:00.861Z,97840.00
2022-08-24T20:26:34.214Z,97823.00
2022-08-24T20:29:01.171Z,97845.00
2022-08-24T20:31:28.949Z,97834.00
2022-08-24T20:33:57.102Z,97844.00
2022-08-24T20:36:38.655Z,97840.00
2022-08-24T20:39:10.957Z,97857.00
2022-08-24T20:41:40.513Z,97854.00
2022-08-24T20:44:10.341Z,97854.00
2022-08-24T20:46:39.927Z,97843.00
2022-08-24T20:49:08.749Z,97852.00
2022-08-24T20:51:45.024Z,97846.00
2022-08-24T20:54:14.722Z,97866.00
2022-08-24T20:56:44.425Z,97858.00
2022-08-24T20:59:14.242Z,97846.00
2022-08-24T21:01:45.768Z,97867.00
2022-08-24T21:04:13.764Z,97851.00
2022-08-24T21:06:44.716Z,97860.00
2022-08-24T21:09:14.095Z,97851.00
2022-08-24T21:11:41.973Z,97850.00
2022-08-24T21:14:09.263Z,97852.00
2022-08-24T21:16:42.549Z,97851.00
2022-08-24T21:19:12.800Z,97845.00
2022-08-24T21:21:42.437Z,97856.00
2022-08-24T21:24:10.018Z,97855.00
2022-08-24T21:26:37.412Z,97861.00
2022-08-24T21:29:07.027Z,97865.00
2022-08-24T21:31:34.180Z,97863.00
2022-08-24T21:34:19.609Z,97847.00
2022-08-24T21:36:48.710Z,97860.00
2022-08-24T21:39:16.594Z,97865.00
2022-08-24T21:41:43.629Z,97860.00
2022-08-24T21:44:10.526Z,97858.00
2022-08-24T21:46:39.433Z,97868.00
2022-08-24T21:49:06.741Z,97860.00
2022-08-24T21:51:36.148Z,97847.00
2022-08-24T21:54:03.068Z,97880.00
2022-08-24T21:56:32.309Z,97869.00
2022-08-24T21:58:59.361Z,97871.00
2022-08-24T22:01:26.512Z,97869.00
2022-08-24T22:03:56.250Z,97868.00
2022-08-24T22:06:26.804Z,97856.00
2022-08-24T22:08:56.164Z,97855.00
2022-08-24T22:11:26.425Z,97863.00
2022-08-24T22:13:54.692Z,97864.00
2022-08-24T22:16:22.607Z,97872.00
2022-08-24T22:18:50.030Z,97863.00
2022-08-24T22:21:22.072Z,97868.00
2022-08-24T22:23:49.412Z,97859.00
2022-08-24T22:26:16.736Z,97864.00
2022-08-24T22:28:43.895Z,97864.00
2022-08-24T22:31:22.740Z,97860.00
2022-08-24T22:33:50.568Z,97863.00
2022-08-24T22:36:18.015Z,97852.00
2022-08-24T22:38:45.580Z,97856.00
2022-08-24T22:41:13.444Z,97852.00
2022-08-24T22:43:59.583Z,97848.00
2022-08-24T22:46:27.302Z,97853.00
2022-08-24T22:48:54.412Z,97859.00
2022-08-24T22:51:21.925Z,97852.00
2022-08-24T22:53:49.027Z,97853.00
2022-08-24T22:56:19.988Z,97870.00
2022-08-24T22:58:48.823Z,97858.00
2022-08-24T23:01:34.980Z,97864.00
2022-08-24T23:04:09.658Z,97853.00
2022-08-24T23:06:37.139Z,97857.00
2022-08-24T23:09:05.930Z,97866.00
2022-08-24T23:11:34.441Z,97860.00
2022-08-24T23:14:03.233Z,97864.00
2022-08-24T23:16:33.091Z,97858.00
2022-08-24T23:19:19.279Z,97868.00
2022-08-24T23:21:46.797Z,97861.00
2022-08-24T23:24:14.630Z,97865.00
2022-08-24T23:26:43.145Z,97850.00
2022-08-24T23:29:13.251Z,97845.00
2022-08-24T23:31:42.385Z,97846.00
2022-08-24T23:34:10.653Z,97852.00
2022-08-24T23:36:38.468Z,97848.00
2022-08-24T23:39:08.449Z,97855.00
2022-08-24T23:41:39.062Z,97848.00
2022-08-24T23:44:13.860Z,97846.00
2022-08-24T23:46:41.480Z,97852.00
2022-08-24T23:49:09.631Z,97839.00
2022-08-24T23:51:37.231Z,97840.00
2022-08-24T23:54:06.472Z,97830.00
2022-08-24T23:56:36.622Z,97848.00
2022-08-24T23:59:14.909Z,97839.00
